createdAt,value
2017-01-17T00:00:22.219Z,3.05
2017-01-17T00:01:02.732Z,3.02
2017-01-17T00:01:43.196Z,3.21
2017-01-17T00:02:23.663Z,3.14
2017-01-17T00:03:04.172Z,3.1
2017-01-17T00:03:44.664Z,3.26
2017-01-17T00:04:25.161Z,3.14
2017-01-17T00:05:05.629Z,3.03
2017-01-17T00:05:46.152Z,3.03
2017-01-17T00:06:26.618Z,3.06
2017-01-17T00:07:07.114Z,3.05
2017-01-17T00:07:47.631Z,3.15
2017-01-17T00:08:28.125Z,3.14
2017-01-17T00:09:08.613Z,3.17
2017-01-17T00:09:49.132Z,3.17
2017-01-17T00:10:29.642Z,3.18
2017-01-17T00:11:10.156Z,3.08
2017-01-17T00:11:50.647Z,3.24
2017-01-17T00:12:31.159Z,3.14
2017-01-17T00:13:11.661Z,2.92
2017-01-17T00:13:52.159Z,2.84
2017-01-17T00:14:32.694Z,2.71
2017-01-17T00:15:13.183Z,2.84
2017-01-17T00:15:53.661Z,2.84
2017-01-17T00:16:34.179Z,2.87
2017-01-17T00:17:14.666Z,2.89
2017-01-17T00:17:55.181Z,2.72
2017-01-17T00:18:35.691Z,2.71
2017-01-17T00:19:16.217Z,2.78
2017-01-17T00:19:56.722Z,2.67
2017-01-17T00:20:37.221Z,2.59
2017-01-17T00:21:18.030Z,2.64
2017-01-17T00:21:58.545Z,2.66
2017-01-17T00:22:39.090Z,2.59
2017-01-17T00:24:27.132Z,2.6
2017-01-17T00:25:07.609Z,2.6
2017-01-17T00:25:48.105Z,2.69
2017-01-17T00:26:28.609Z,2.77
2017-01-17T00:27:09.145Z,2.77
2017-01-17T00:27:49.617Z,2.84
2017-01-17T00:28:30.159Z,2.84
2017-01-17T00:29:10.692Z,2.71
2017-01-17T00:29:51.154Z,2.6
2017-01-17T00:30:31.710Z,2.64
2017-01-17T00:31:12.154Z,2.53
2017-01-17T00:31:52.656Z,2.53
2017-01-17T00:32:33.265Z,2.66
2017-01-17T00:33:13.782Z,2.6
2017-01-17T00:33:54.213Z,2.6
2017-01-17T00:34:34.687Z,2.48
2017-01-17T00:35:15.168Z,2.41
2017-01-17T00:35:55.639Z,2.42
2017-01-17T00:36:36.194Z,2.48
2017-01-17T00:37:16.653Z,2.61
2017-01-17T00:37:57.128Z,2.59
2017-01-17T00:38:37.609Z,2.61
2017-01-17T00:39:18.109Z,2.59
2017-01-17T00:39:58.615Z,2.69
2017-01-17T00:40:39.134Z,2.6
2017-01-17T00:41:19.744Z,2.66
2017-01-17T00:42:00.378Z,2.59
2017-01-17T00:42:40.826Z,2.46
2017-01-17T00:43:21.423Z,2.48
2017-01-17T00:44:01.870Z,2.42
2017-01-17T00:44:42.351Z,2.42
2017-01-17T00:45:22.877Z,2.39
2017-01-17T00:46:03.423Z,2.45
2017-01-17T00:46:43.921Z,2.38
2017-01-17T00:47:24.429Z,2.35
2017-01-17T00:48:04.924Z,2.21
2017-01-17T00:48:45.430Z,2.23
2017-01-17T00:49:25.940Z,2.16
2017-01-17T00:50:06.443Z,2.21
2017-01-17T00:50:46.912Z,2.36
2017-01-17T00:51:27.428Z,2.42
2017-01-17T00:52:08.009Z,2.45
2017-01-17T00:52:48.497Z,2.46
2017-01-17T00:53:28.948Z,2.3
2017-01-17T00:54:09.437Z,2.34
2017-01-17T00:54:49.930Z,2.38
2017-01-17T00:55:30.650Z,2.34
2017-01-17T00:56:11.115Z,2.28
2017-01-17T00:56:51.551Z,2.34
2017-01-17T00:57:32.127Z,2.23
2017-01-17T00:58:12.545Z,2.34
2017-01-17T00:58:52.997Z,2.34
2017-01-17T00:59:33.515Z,2.46
2017-01-17T01:00:14.027Z,2.46
2017-01-17T01:00:54.470Z,2.34
2017-01-17T01:01:34.984Z,2.28
2017-01-17T01:02:15.440Z,2.2
2017-01-17T01:02:55.902Z,2.23
2017-01-17T01:03:36.462Z,2.25
2017-01-17T01:04:16.905Z,2.3
2017-01-17T01:04:57.643Z,2.25
2017-01-17T01:05:38.222Z,2.38
2017-01-17T01:06:18.859Z,2.35
2017-01-17T01:06:59.347Z,2.48
2017-01-17T01:07:39.931Z,2.41
2017-01-17T01:08:20.345Z,2.41
2017-01-17T01:09:00.806Z,2.53
2017-01-17T01:09:41.475Z,2.49
2017-01-17T01:10:21.937Z,2.42
2017-01-17T01:11:02.438Z,2.52
2017-01-17T01:11:42.929Z,2.59
2017-01-17T01:15:03.633Z,2.66
2017-01-17T01:15:43.994Z,2.54
2017-01-17T01:16:24.482Z,2.45
2017-01-17T01:17:04.994Z,2.48
2017-01-17T01:17:45.486Z,2.56
2017-01-17T01:18:25.952Z,2.56
2017-01-17T01:19:06.444Z,2.48
2017-01-17T01:19:46.999Z,2.43
2017-01-17T01:20:27.456Z,2.52
2017-01-17T01:21:07.969Z,2.45
2017-01-17T01:21:48.421Z,2.39
2017-01-17T01:22:28.984Z,2.45
2017-01-17T01:23:09.424Z,2.45
2017-01-17T01:23:49.943Z,2.48
2017-01-17T01:24:30.402Z,2.42
2017-01-17T01:25:10.874Z,2.28
2017-01-17T01:25:51.326Z,2.45
2017-01-17T01:26:31.818Z,2.27
2017-01-17T01:27:12.466Z,2.35
2017-01-17T01:27:52.816Z,2.36
2017-01-17T01:28:33.322Z,2.41
2017-01-17T01:29:13.792Z,2.34
2017-01-17T01:29:54.381Z,2.39
2017-01-17T01:30:34.880Z,2.36
2017-01-17T01:31:15.400Z,2.34
2017-01-17T01:31:55.855Z,2.3
2017-01-17T01:32:36.357Z,2.31
2017-01-17T01:33:16.888Z,2.41
2017-01-17T01:33:57.369Z,2.35
2017-01-17T01:34:37.887Z,2.45
2017-01-17T01:35:18.285Z,2.41
2017-01-17T01:35:58.841Z,2.41
2017-01-17T01:36:39.294Z,2.45
2017-01-17T01:37:19.782Z,2.3
2017-01-17T01:38:00.296Z,2.27
2017-01-17T01:38:40.804Z,2.39
2017-01-17T01:39:21.313Z,2.25
2017-01-17T01:40:01.821Z,2.34
2017-01-17T01:40:42.302Z,2.41
2017-01-17T01:41:22.809Z,2.24
2017-01-17T01:42:03.302Z,2.2
2017-01-17T01:42:43.822Z,2.16
2017-01-17T01:43:24.342Z,2.06
2017-01-17T01:44:04.881Z,2.05
2017-01-17T01:44:45.321Z,2.17
2017-01-17T01:45:25.827Z,2.2
2017-01-17T01:46:06.320Z,2.17
2017-01-17T01:46:46.769Z,2.31
2017-01-17T01:47:27.266Z,2.07
2017-01-17T01:48:07.859Z,2.02
2017-01-17T01:48:48.354Z,2.06
2017-01-17T01:49:28.908Z,2.17
2017-01-17T01:50:09.363Z,2.09
2017-01-17T01:50:49.859Z,2.06
2017-01-17T01:51:30.322Z,2.16
2017-01-17T01:52:10.863Z,2.1
2017-01-17T01:52:51.356Z,2.06
2017-01-17T01:53:31.818Z,2.1
2017-01-17T01:54:12.368Z,2.21
2017-01-17T01:54:52.823Z,2.23
2017-01-17T01:55:33.381Z,2.2
2017-01-17T01:56:13.813Z,2.21
2017-01-17T01:56:54.314Z,2.3
2017-01-17T01:57:34.809Z,2.12
2017-01-17T01:58:15.357Z,2.07
2017-01-17T01:58:55.828Z,2.03
2017-01-17T01:59:36.314Z,1.98
2017-01-17T02:00:16.809Z,1.9
2017-01-17T02:00:57.314Z,2
2017-01-17T02:01:37.916Z,1.98
2017-01-17T02:02:18.372Z,2.05
2017-01-17T02:02:58.860Z,1.99
2017-01-17T02:03:39.327Z,2.02
2017-01-17T02:04:19.835Z,2.05
2017-01-17T02:05:00.332Z,2.07
2017-01-17T02:05:40.869Z,2.23
2017-01-17T02:06:21.307Z,2.07
2017-01-17T02:07:01.848Z,2.17
2017-01-17T02:07:42.359Z,2.14
2017-01-17T02:08:22.853Z,2.1
2017-01-17T02:09:03.346Z,1.93
2017-01-17T02:09:43.867Z,2
2017-01-17T02:10:24.341Z,2.09
2017-01-17T02:11:04.869Z,2.23
2017-01-17T02:11:45.351Z,2.24
2017-01-17T02:12:25.864Z,2.24
2017-01-17T02:13:06.354Z,2.25
2017-01-17T02:14:59.412Z,2.24
2017-01-17T02:15:39.913Z,2.16
2017-01-17T02:16:20.484Z,2.2
2017-01-17T02:17:00.959Z,2.12
2017-01-17T02:17:41.458Z,2.14
2017-01-17T02:18:21.962Z,2.21
2017-01-17T02:19:02.457Z,2.28
2017-01-17T02:19:42.951Z,2.3
2017-01-17T02:20:23.455Z,2.27
2017-01-17T02:21:03.936Z,2.34
2017-01-17T02:21:44.468Z,2.35
2017-01-17T02:22:24.966Z,2.36
2017-01-17T02:23:05.402Z,2.3
2017-01-17T02:23:45.900Z,2.21
2017-01-17T02:24:26.404Z,2.34
2017-01-17T02:25:06.906Z,2.23
2017-01-17T02:25:47.399Z,2.45
2017-01-17T02:26:27.909Z,2.36
2017-01-17T02:27:08.407Z,2.31
2017-01-17T02:27:48.919Z,2.21
2017-01-17T02:28:29.460Z,2.09
2017-01-17T02:29:09.962Z,1.95
2017-01-17T02:29:50.457Z,1.98
2017-01-17T02:30:30.932Z,1.93
2017-01-17T02:31:11.442Z,1.76
2017-01-17T02:31:51.951Z,1.88
2017-01-17T02:32:32.460Z,1.98
2017-01-17T02:33:12.964Z,1.86
2017-01-17T02:33:53.506Z,1.9
2017-01-17T02:34:33.999Z,2
2017-01-17T02:35:14.463Z,1.95
2017-01-17T02:35:54.980Z,2.03
2017-01-17T02:36:35.457Z,1.77
2017-01-17T02:37:15.961Z,1.81
2017-01-17T02:37:56.458Z,1.68
2017-01-17T02:38:36.966Z,1.58
2017-01-17T02:39:17.433Z,1.63
2017-01-17T02:39:57.971Z,1.7
2017-01-17T02:40:38.476Z,1.8
2017-01-17T02:41:18.980Z,1.83
2017-01-17T02:41:59.484Z,1.8
2017-01-17T02:42:39.960Z,1.79
2017-01-17T02:43:20.466Z,1.98
2017-01-17T02:44:00.967Z,1.98
2017-01-17T02:44:41.455Z,1.84
2017-01-17T02:45:21.965Z,2
2017-01-17T02:46:02.405Z,2.07
2017-01-17T02:46:42.908Z,1.9
2017-01-17T02:47:23.446Z,1.88
2017-01-17T02:48:03.957Z,1.81
2017-01-17T02:48:44.493Z,1.7
2017-01-17T02:49:24.997Z,1.79
2017-01-17T02:50:05.506Z,1.73
2017-01-17T02:50:46.005Z,1.76
2017-01-17T02:51:26.594Z,1.95
2017-01-17T02:52:07.121Z,1.9
2017-01-17T02:52:47.626Z,1.99
2017-01-17T02:53:28.084Z,2.03
2017-01-17T02:54:08.572Z,2.03
2017-01-17T02:54:49.061Z,2.05
2017-01-17T02:55:29.541Z,1.73
2017-01-17T02:56:10.054Z,1.69
2017-01-17T02:56:50.554Z,1.55
2017-01-17T02:57:31.058Z,1.69
2017-01-17T02:58:11.562Z,1.6
2017-01-17T02:58:52.034Z,1.8
2017-01-17T02:59:32.539Z,1.62
2017-01-17T03:00:13.040Z,1.72
2017-01-17T03:00:53.562Z,1.8
2017-01-17T03:01:34.053Z,1.76
2017-01-17T03:02:14.589Z,1.66
2017-01-17T03:02:55.073Z,1.66
2017-01-17T03:03:35.582Z,1.55
2017-01-17T03:04:16.086Z,1.54
2017-01-17T03:04:56.588Z,1.52
2017-01-17T03:05:37.107Z,1.62
2017-01-17T03:07:25.055Z,1.5
2017-01-17T03:08:05.548Z,1.54
2017-01-17T03:08:46.047Z,1.66
2017-01-17T03:09:26.539Z,1.6
2017-01-17T03:10:07.049Z,1.66
2017-01-17T03:10:47.569Z,1.73
2017-01-17T03:11:28.072Z,1.7
2017-01-17T03:12:08.568Z,1.69
2017-01-17T03:12:49.076Z,1.68
2017-01-17T03:13:29.564Z,1.63
2017-01-17T03:14:10.060Z,1.44
2017-01-17T03:14:50.574Z,1.44
2017-01-17T03:15:31.085Z,1.29
2017-01-17T03:16:11.582Z,1.33
2017-01-17T03:16:52.089Z,1.42
2017-01-17T03:17:32.598Z,1.36
2017-01-17T03:18:13.096Z,1.58
2017-01-17T03:18:53.603Z,1.63
2017-01-17T03:19:34.118Z,1.58
2017-01-17T03:20:14.584Z,1.44
2017-01-17T03:20:55.020Z,1.47
2017-01-17T03:21:35.514Z,1.68
2017-01-17T03:22:16.011Z,1.69
2017-01-17T03:22:56.513Z,1.69
2017-01-17T03:23:37.007Z,1.81
2017-01-17T03:24:17.489Z,1.65
2017-01-17T03:24:57.992Z,1.68
2017-01-17T03:25:38.525Z,1.7
2017-01-17T03:26:18.997Z,1.72
2017-01-17T03:26:59.528Z,1.62
2017-01-17T03:27:40.006Z,1.6
2017-01-17T03:28:20.472Z,1.65
2017-01-17T03:29:00.983Z,1.76
2017-01-17T03:29:41.488Z,1.65
2017-01-17T03:30:21.984Z,1.79
2017-01-17T03:31:02.485Z,1.8
2017-01-17T03:31:42.995Z,1.7
2017-01-17T03:32:23.466Z,1.59
2017-01-17T03:33:03.986Z,1.18
2017-01-17T03:33:44.477Z,1.42
2017-01-17T03:34:24.962Z,1.45
2017-01-17T03:35:05.418Z,1.66
2017-01-17T03:35:45.936Z,1.65
2017-01-17T03:36:26.447Z,1.5
2017-01-17T03:37:06.970Z,1.62
2017-01-17T03:37:47.487Z,1.6
2017-01-17T03:38:27.995Z,1.65
2017-01-17T03:39:08.537Z,1.68
2017-01-17T03:39:48.999Z,1.6
2017-01-17T03:40:29.503Z,1.73
2017-01-17T03:41:10.014Z,1.73
2017-01-17T03:41:50.543Z,1.69
2017-01-17T03:42:31.053Z,1.5
2017-01-17T03:43:11.540Z,1.62
2017-01-17T03:43:52.050Z,1.7
2017-01-17T03:44:32.551Z,1.69
2017-01-17T03:45:13.058Z,1.79
2017-01-17T03:45:53.556Z,1.91
2017-01-17T03:46:34.041Z,1.65
2017-01-17T03:47:14.540Z,1.63
2017-01-17T03:47:55.028Z,1.62
2017-01-17T03:48:35.513Z,1.79
2017-01-17T03:49:15.999Z,1.65
2017-01-17T03:49:56.516Z,1.54
2017-01-17T03:50:36.993Z,1.52
2017-01-17T03:51:17.505Z,1.6
2017-01-17T03:51:58.006Z,1.65
2017-01-17T03:52:38.538Z,1.6
2017-01-17T03:53:19.015Z,1.6
2017-01-17T03:53:59.489Z,1.66
2017-01-17T03:54:39.993Z,1.66
2017-01-17T03:55:20.480Z,1.76
2017-01-17T03:56:00.970Z,1.65
2017-01-17T03:56:41.469Z,1.7
2017-01-17T03:57:21.966Z,1.72
2017-01-17T03:58:02.489Z,1.69
2017-01-17T03:58:42.995Z,1.59
2017-01-17T03:59:23.525Z,1.62
2017-01-17T04:00:03.974Z,1.62
2017-01-17T04:00:44.491Z,1.65
2017-01-17T04:01:25.012Z,1.76
2017-01-17T04:02:05.503Z,1.83
2017-01-17T04:02:46.038Z,2
2017-01-17T04:03:26.532Z,2.02
2017-01-17T04:05:04.391Z,2.09
2017-01-17T04:05:44.875Z,2.06
2017-01-17T04:06:25.403Z,2.06
2017-01-17T04:07:05.906Z,2.17
2017-01-17T04:07:46.411Z,2.18
2017-01-17T04:08:26.928Z,2.07
2017-01-17T04:09:07.379Z,2.16
2017-01-17T04:09:47.856Z,2.03
2017-01-17T04:10:28.354Z,2.17
2017-01-17T04:11:08.850Z,2.24
2017-01-17T04:11:49.339Z,2.12
2017-01-17T04:12:29.829Z,2.02
2017-01-17T04:13:10.354Z,2.05
2017-01-17T04:13:50.844Z,2.06
2017-01-17T04:14:31.346Z,2.17
2017-01-17T04:15:11.969Z,2.06
2017-01-17T04:15:52.464Z,2.06
2017-01-17T04:16:32.960Z,2.1
2017-01-17T04:17:13.464Z,2.06
2017-01-17T04:17:53.981Z,2.2
2017-01-17T04:18:34.461Z,2.09
2017-01-17T04:19:14.961Z,1.88
2017-01-17T04:19:55.432Z,2.12
2017-01-17T04:20:35.944Z,2.09
2017-01-17T04:21:16.523Z,2.12
2017-01-17T04:21:56.989Z,2.07
2017-01-17T04:22:37.510Z,2
2017-01-17T04:23:18.019Z,2.09
2017-01-17T04:23:58.503Z,2.09
2017-01-17T04:24:39.005Z,1.91
2017-01-17T04:25:19.494Z,1.87
2017-01-17T04:25:59.996Z,1.93
2017-01-17T04:26:40.492Z,1.98
2017-01-17T04:27:20.983Z,2.03
2017-01-17T04:28:01.501Z,2.12
2017-01-17T04:28:42.086Z,2.2
2017-01-17T04:29:22.501Z,2.09
2017-01-17T04:30:02.993Z,2.09
2017-01-17T04:30:43.490Z,2.23
2017-01-17T04:31:23.993Z,2.27
2017-01-17T04:32:04.516Z,2.18
2017-01-17T04:32:45.019Z,2.05
2017-01-17T04:33:25.646Z,2.09
2017-01-17T04:34:06.001Z,2.21
2017-01-17T04:34:46.585Z,2.07
2017-01-17T04:35:26.983Z,2.02
2017-01-17T04:36:07.482Z,1.86
2017-01-17T04:36:48.017Z,2.03
2017-01-17T04:37:28.487Z,2.14
2017-01-17T04:38:08.990Z,1.9
2017-01-17T04:38:49.486Z,2.1
2017-01-17T04:39:29.984Z,2.05
2017-01-17T04:40:10.521Z,2
2017-01-17T04:40:51.003Z,2.02
2017-01-17T04:41:31.524Z,2.06
2017-01-17T04:42:12.067Z,2.03
2017-01-17T04:42:52.625Z,1.99
2017-01-17T04:43:33.113Z,1.88
2017-01-17T04:44:13.612Z,1.95
2017-01-17T04:44:54.152Z,2
2017-01-17T04:45:34.623Z,2.03
2017-01-17T04:46:15.096Z,2.1
2017-01-17T04:46:55.605Z,1.93
2017-01-17T04:47:36.108Z,1.95
2017-01-17T04:48:16.602Z,1.98
2017-01-17T04:48:57.121Z,1.9
2017-01-17T04:49:37.582Z,1.98
2017-01-17T04:50:18.146Z,1.98
2017-01-17T04:50:58.585Z,1.93
2017-01-17T04:51:39.110Z,2.16
2017-01-17T04:52:19.582Z,2.27
2017-01-17T04:53:00.088Z,2.1
2017-01-17T04:53:40.579Z,2
2017-01-17T04:54:21.081Z,1.86
2017-01-17T04:55:01.564Z,2.07
2017-01-17T04:55:42.051Z,2.02
2017-01-17T04:56:22.568Z,2
2017-01-17T04:57:03.063Z,2.03
2017-01-17T04:57:43.562Z,2.1
2017-01-17T04:58:24.075Z,2.07
2017-01-17T04:59:04.568Z,2.12
2017-01-17T04:59:45.083Z,2
2017-01-17T05:00:25.586Z,2
2017-01-17T05:01:06.101Z,2.02
2017-01-17T05:01:46.607Z,1.98
2017-01-17T05:02:27.134Z,2.03
2017-01-17T05:03:07.655Z,2.02
2017-01-17T05:03:48.152Z,2.17
2017-01-17T05:04:28.658Z,2.06
2017-01-17T05:05:09.170Z,1.93
2017-01-17T05:05:49.660Z,2.1
2017-01-17T05:06:30.161Z,2.2
2017-01-17T05:07:10.679Z,2.27
2017-01-17T05:07:51.157Z,2.2
2017-01-17T05:08:31.639Z,2.09
2017-01-17T05:09:12.101Z,2.06
2017-01-17T05:09:52.629Z,1.93
2017-01-17T05:10:33.111Z,2
2017-01-17T05:11:13.623Z,2
2017-01-17T05:11:54.126Z,2.12
2017-01-17T05:12:34.653Z,2.06
2017-01-17T05:13:15.186Z,2.1
2017-01-17T05:13:55.676Z,1.95
2017-01-17T05:14:36.228Z,1.93
2017-01-17T05:15:16.725Z,1.86
2017-01-17T05:15:57.236Z,1.88
2017-01-17T05:16:37.703Z,1.9
2017-01-17T05:17:18.248Z,1.9
2017-01-17T05:17:58.758Z,1.93
2017-01-17T05:18:39.245Z,2.1
2017-01-17T05:19:19.748Z,1.98
2017-01-17T05:20:00.271Z,1.98
2017-01-17T05:20:40.773Z,1.91
2017-01-17T05:21:21.306Z,1.95
2017-01-17T05:22:01.767Z,2.02
2017-01-17T05:22:42.250Z,1.99
2017-01-17T05:23:22.753Z,2.1
2017-01-17T05:24:03.224Z,2.02
2017-01-17T05:24:43.717Z,1.93
2017-01-17T05:25:24.223Z,2.09
2017-01-17T05:26:04.693Z,2.02
2017-01-17T05:26:45.251Z,2.05
2017-01-17T05:27:25.727Z,2.12
2017-01-17T05:28:06.276Z,2.25
2017-01-17T05:28:46.703Z,2.3
2017-01-17T05:29:27.248Z,2.35
2017-01-17T05:30:07.760Z,2.24
2017-01-17T05:30:48.318Z,2.14
2017-01-17T05:31:28.758Z,2.2
2017-01-17T05:32:09.220Z,2.21
2017-01-17T05:32:49.733Z,2.34
2017-01-17T05:33:30.323Z,2.36
2017-01-17T05:34:10.818Z,2.36
2017-01-17T05:34:51.307Z,2.25
2017-01-17T05:35:31.786Z,2.35
2017-01-17T05:36:12.285Z,2.45
2017-01-17T05:36:52.778Z,2.43
2017-01-17T05:37:33.288Z,2.41
2017-01-17T05:38:13.777Z,2.45
2017-01-17T05:38:54.260Z,2.3
2017-01-17T05:39:34.789Z,2.34
2017-01-17T05:40:15.266Z,2.36
2017-01-17T05:40:55.767Z,2.39
2017-01-17T05:41:36.266Z,2.39
2017-01-17T05:42:16.762Z,2.21
2017-01-17T05:42:57.259Z,2.3
2017-01-17T05:43:37.789Z,2.34
2017-01-17T05:44:18.266Z,2.34
2017-01-17T05:44:58.762Z,2.46
2017-01-17T05:45:39.269Z,2.28
2017-01-17T05:46:19.774Z,2.21
2017-01-17T05:47:00.213Z,2.39
2017-01-17T05:47:40.678Z,2.35
2017-01-17T05:48:21.188Z,2.31
2017-01-17T05:49:01.698Z,2.43
2017-01-17T05:49:42.229Z,2.46
2017-01-17T05:50:22.687Z,2.48
2017-01-17T05:51:03.178Z,2.46
2017-01-17T05:51:43.669Z,2.34
2017-01-17T05:52:24.163Z,2.39
2017-01-17T05:53:04.727Z,2.3
2017-01-17T05:53:45.165Z,2.34
2017-01-17T05:54:25.657Z,2.34
2017-01-17T05:55:06.150Z,2.36
2017-01-17T05:55:46.679Z,2.34
2017-01-17T05:56:27.183Z,2.34
2017-01-17T05:57:07.831Z,2.28
2017-01-17T05:57:48.445Z,2.27
2017-01-17T05:58:28.937Z,2.34
2017-01-17T05:59:09.490Z,2.34
2017-01-17T05:59:49.930Z,2.34
2017-01-17T06:00:30.423Z,2.36
2017-01-17T06:01:10.889Z,2.41
2017-01-17T06:01:51.421Z,2.45
2017-01-17T06:02:31.828Z,2.34
2017-01-17T06:03:12.354Z,2.48
2017-01-17T06:03:52.852Z,2.42
2017-01-17T06:04:33.345Z,2.57
2017-01-17T06:05:13.800Z,2.56
2017-01-17T06:05:54.300Z,2.46
2017-01-17T06:06:34.816Z,2.71
2017-01-17T06:07:15.316Z,2.46
2017-01-17T06:07:55.826Z,2.3
2017-01-17T06:08:36.364Z,2.31
2017-01-17T06:09:16.841Z,2.18
2017-01-17T06:09:57.353Z,2.21
2017-01-17T06:10:37.863Z,2.36
2017-01-17T06:11:18.372Z,2.39
2017-01-17T06:11:58.918Z,2.43
2017-01-17T06:12:39.362Z,2.42
2017-01-17T06:13:19.873Z,2.45
2017-01-17T06:14:00.388Z,2.48
2017-01-17T06:14:40.853Z,2.49
2017-01-17T06:15:21.377Z,2.48
2017-01-17T06:16:01.823Z,2.27
2017-01-17T06:16:42.332Z,2.31
2017-01-17T06:17:22.859Z,2.28
2017-01-17T06:18:03.407Z,2.3
2017-01-17T06:18:43.870Z,2.41
2017-01-17T06:19:24.364Z,2.35
2017-01-17T06:20:04.836Z,2.45
2017-01-17T06:20:45.353Z,2.45
2017-01-17T06:21:25.822Z,2.38
2017-01-17T06:22:06.383Z,2.41
2017-01-17T06:24:19.961Z,2.67
2017-01-17T06:25:00.298Z,2.61
2017-01-17T06:25:40.786Z,2.69
2017-01-17T06:26:21.302Z,2.57
2017-01-17T06:27:01.803Z,2.67
2017-01-17T06:27:42.279Z,2.49
2017-01-17T06:28:22.806Z,2.46
2017-01-17T06:29:03.290Z,2.49
2017-01-17T06:29:43.777Z,2.57
2017-01-17T06:30:24.454Z,2.59
2017-01-17T06:31:04.940Z,2.72
2017-01-17T06:31:45.453Z,2.71
2017-01-17T06:32:25.942Z,2.69
2017-01-17T06:33:06.492Z,2.75
2017-01-17T06:33:46.998Z,2.74
2017-01-17T06:34:27.543Z,2.77
2017-01-17T06:35:07.989Z,2.81
2017-01-17T06:35:48.449Z,2.74
2017-01-17T06:36:29.221Z,2.75
2017-01-17T06:38:19.457Z,2.89
2017-01-17T06:39:00.035Z,2.79
2017-01-17T06:39:40.698Z,2.87
2017-01-17T06:40:21.207Z,2.66
2017-01-17T06:41:01.618Z,2.61
2017-01-17T06:41:47.560Z,2.59
2017-01-17T06:42:23.247Z,2.6
2017-01-17T06:43:03.646Z,2.61
2017-01-17T06:43:44.165Z,2.64
2017-01-17T06:44:24.744Z,2.54
2017-01-17T06:45:05.361Z,2.61
2017-01-17T06:45:45.740Z,2.57
2017-01-17T06:46:26.371Z,2.67
2017-01-17T06:47:06.843Z,2.63
2017-01-17T06:47:47.355Z,2.66
2017-01-17T06:48:28.169Z,2.72
2017-01-17T06:49:08.346Z,2.82
2017-01-17T06:49:48.855Z,2.85
2017-01-17T06:50:29.760Z,2.89
2017-01-17T06:51:10.027Z,2.9
2017-01-17T06:51:50.475Z,2.84
2017-01-17T06:52:30.953Z,2.78
2017-01-17T06:53:11.478Z,2.79
2017-01-17T06:55:25.061Z,2.61
2017-01-17T06:56:05.910Z,2.53
2017-01-17T06:56:46.238Z,2.56
2017-01-17T06:57:26.713Z,2.59
2017-01-17T06:58:07.209Z,2.6
2017-01-17T06:58:47.883Z,2.64
2017-01-17T06:59:28.419Z,2.56
2017-01-17T07:00:09.065Z,2.63
2017-01-17T07:00:55.513Z,2.59
2017-01-17T07:01:36.123Z,2.66
2017-01-17T07:02:16.609Z,2.81
2017-01-17T07:02:57.275Z,2.71
2017-01-17T07:04:38.133Z,2.79
2017-01-17T07:05:18.682Z,2.79
2017-01-17T07:05:59.199Z,2.89
2017-01-17T07:06:39.656Z,2.93
2017-01-17T07:07:20.163Z,2.9
2017-01-17T07:08:00.839Z,2.95
2017-01-17T07:08:41.440Z,2.99
2017-01-17T07:09:21.984Z,3.05
2017-01-17T07:10:02.532Z,2.85
2017-01-17T07:10:42.990Z,2.79
2017-01-17T07:11:23.500Z,2.69
2017-01-17T07:12:03.961Z,2.84
2017-01-17T07:12:44.422Z,2.87
2017-01-17T07:13:24.885Z,2.77
2017-01-17T07:14:05.506Z,2.82
2017-01-17T07:14:46.147Z,2.84
2017-01-17T07:15:26.712Z,2.72
2017-01-17T07:16:07.929Z,2.75
2017-01-17T07:16:48.384Z,2.72
2017-01-17T07:17:28.925Z,2.63
2017-01-17T07:18:09.435Z,2.71
2017-01-17T07:18:49.841Z,2.72
2017-01-17T07:19:30.779Z,2.71
2017-01-17T07:23:44.155Z,3.6
2017-01-17T07:24:24.759Z,4.11
2017-01-17T07:25:05.258Z,3.96
2017-01-17T07:25:45.744Z,3.54
2017-01-17T07:27:33.727Z,2.89
2017-01-17T07:28:14.274Z,3
2017-01-17T07:28:54.750Z,3.08
2017-01-17T07:29:35.251Z,3.15
2017-01-17T07:30:15.808Z,3.08
2017-01-17T07:30:56.801Z,3.78
2017-01-17T07:31:37.616Z,3.78
2017-01-17T07:32:18.141Z,4.44
2017-01-17T07:32:58.660Z,4.62
2017-01-17T07:33:39.338Z,4.63
2017-01-17T07:34:19.743Z,3.94
2017-01-17T07:35:00.267Z,4.05
2017-01-17T07:35:40.786Z,3.84
2017-01-17T07:36:21.288Z,3.88
2017-01-17T07:37:02.050Z,3.65
2017-01-17T07:37:42.541Z,3.5
2017-01-17T07:38:22.999Z,3.23
2017-01-17T07:39:03.789Z,3.15
2017-01-17T07:39:44.299Z,3.17
2017-01-17T07:40:24.789Z,3.08
2017-01-17T07:41:05.302Z,3.06
2017-01-17T07:41:45.824Z,3.23
2017-01-17T07:42:26.332Z,3.15
2017-01-17T07:43:06.845Z,3.15
2017-01-17T07:43:47.357Z,3.28
2017-01-17T07:44:27.863Z,3.18
2017-01-17T07:45:08.371Z,3.42
2017-01-17T07:45:48.891Z,3.28
2017-01-17T07:46:29.410Z,3.13
2017-01-17T07:47:09.915Z,3.13
2017-01-17T07:47:50.439Z,3.03
2017-01-17T07:48:30.954Z,2.96
2017-01-17T07:49:11.469Z,2.95
2017-01-17T07:49:52.082Z,2.92
2017-01-17T07:50:32.622Z,2.95
2017-01-17T07:51:13.163Z,3.02
2017-01-17T07:51:53.685Z,3
2017-01-17T07:52:34.219Z,2.87
2017-01-17T07:53:14.733Z,2.9
2017-01-17T07:53:55.254Z,2.79
2017-01-17T07:54:35.779Z,2.85
2017-01-17T07:55:16.333Z,2.82
2017-01-17T07:55:56.838Z,2.9
2017-01-17T07:56:37.385Z,3
2017-01-17T07:57:17.907Z,2.9
2017-01-17T07:57:58.422Z,2.9
2017-01-17T07:58:38.913Z,2.93
2017-01-17T07:59:19.446Z,3.02
2017-01-17T07:59:59.966Z,2.96
2017-01-17T08:00:40.497Z,2.72
2017-01-17T08:01:21.009Z,2.72
2017-01-17T08:02:01.531Z,2.77
2017-01-17T08:02:42.044Z,2.81
2017-01-17T08:03:22.560Z,2.96
2017-01-17T08:04:03.079Z,2.96
2017-01-17T08:04:43.601Z,3.05
2017-01-17T08:05:24.161Z,3.13
2017-01-17T08:06:04.678Z,3.15
2017-01-17T08:06:45.204Z,3.83
2017-01-17T08:07:25.729Z,3.98
2017-01-17T08:08:06.230Z,4.16
2017-01-17T08:08:46.755Z,3.65
2017-01-17T08:09:27.284Z,3.84
2017-01-17T08:10:07.822Z,3.87
2017-01-17T08:10:48.342Z,4.06
2017-01-17T08:11:28.911Z,3.97
2017-01-17T08:12:09.364Z,3.6
2017-01-17T08:12:49.885Z,3.24
2017-01-17T08:13:30.405Z,3.21
2017-01-17T08:14:10.922Z,3.23
2017-01-17T08:14:51.448Z,3.1
2017-01-17T08:15:31.992Z,3.11
2017-01-17T08:16:12.509Z,3.1
2017-01-17T08:16:53.035Z,3.14
2017-01-17T08:17:33.539Z,3.2
2017-01-17T08:18:14.049Z,3.18
2017-01-17T08:18:54.551Z,3.26
2017-01-17T08:19:35.063Z,3.33
2017-01-17T08:20:15.578Z,3.28
2017-01-17T08:20:56.133Z,3.7
2017-01-17T08:21:36.604Z,3.84
2017-01-17T08:22:17.121Z,4.36
2017-01-17T08:22:57.628Z,4.18
2017-01-17T08:23:38.168Z,4.12
2017-01-17T08:24:18.731Z,4.37
2017-01-17T08:24:59.245Z,4.45
2017-01-17T08:25:39.755Z,4.06
2017-01-17T08:26:20.276Z,3.75
2017-01-17T08:27:00.795Z,3.52
2017-01-17T08:27:41.353Z,3.36
2017-01-17T08:28:21.844Z,3.28
2017-01-17T08:29:02.364Z,3.32
2017-01-17T08:29:42.884Z,3.52
2017-01-17T08:30:23.392Z,3.21
2017-01-17T08:31:03.924Z,3.08
2017-01-17T08:31:44.401Z,3.05
2017-01-17T08:32:24.895Z,3.05
2017-01-17T08:34:02.750Z,3.62
2017-01-17T08:34:43.273Z,3.55
2017-01-17T08:35:23.789Z,3.55
2017-01-17T08:36:04.305Z,3.57
2017-01-17T08:36:44.813Z,3.52
2017-01-17T08:37:25.346Z,3.2
2017-01-17T08:38:05.852Z,3.21
2017-01-17T08:38:46.368Z,3.4
2017-01-17T08:39:26.899Z,3.21
2017-01-17T08:40:07.857Z,3.21
2017-01-17T08:40:48.540Z,3.24
2017-01-17T08:41:29.002Z,3.21
2017-01-17T08:42:09.631Z,3.2
2017-01-17T08:42:50.113Z,3.26
2017-01-17T08:43:30.631Z,3.21
2017-01-17T08:44:11.136Z,2.95
2017-01-17T08:44:51.651Z,2.72
2017-01-17T08:45:32.181Z,2.85
2017-01-17T08:46:12.685Z,3.03
2017-01-17T08:46:53.188Z,3.17
2017-01-17T08:47:33.699Z,3.28
2017-01-17T08:48:14.258Z,3.23
2017-01-17T08:48:54.780Z,3.21
2017-01-17T08:49:35.281Z,3.29
2017-01-17T08:50:15.798Z,3.23
2017-01-17T08:50:56.330Z,3.2
2017-01-17T08:51:36.879Z,3.11
2017-01-17T08:52:17.376Z,3.02
2017-01-17T08:52:57.883Z,3.1
2017-01-17T08:53:38.390Z,3.08
2017-01-17T08:54:18.968Z,3.2
2017-01-17T08:54:59.491Z,3.21
2017-01-17T08:55:40.009Z,3.21
2017-01-17T08:56:20.524Z,3.55
2017-01-17T08:57:01.033Z,3.55
2017-01-17T08:57:41.555Z,3.4
2017-01-17T08:58:22.390Z,3.47
2017-01-17T08:59:04.381Z,3.45
2017-01-17T08:59:44.885Z,3.57
2017-01-17T09:00:25.555Z,4
2017-01-17T09:01:06.131Z,3.76
2017-01-17T09:01:46.673Z,3.84
2017-01-17T09:02:27.177Z,3.72
2017-01-17T09:03:07.722Z,3.76
2017-01-17T09:03:48.203Z,3.86
2017-01-17T09:04:28.723Z,3.78
2017-01-17T09:05:09.206Z,3.73
2017-01-17T09:05:49.716Z,3.65
2017-01-17T09:06:30.221Z,3.36
2017-01-17T09:07:10.729Z,3.4
2017-01-17T09:08:58.939Z,3.33
2017-01-17T09:09:39.454Z,3.35
2017-01-17T09:10:19.894Z,3.43
2017-01-17T09:11:00.451Z,3.58
2017-01-17T09:11:40.923Z,3.39
2017-01-17T09:12:21.400Z,3.33
2017-01-17T09:13:01.898Z,3.47
2017-01-17T09:13:42.392Z,3.35
2017-01-17T09:14:22.909Z,3.5
2017-01-17T09:15:03.411Z,3.54
2017-01-17T09:15:43.975Z,3.47
2017-01-17T09:16:24.545Z,3.58
2017-01-17T09:17:05.001Z,3.8
2017-01-17T09:17:45.531Z,3.98
2017-01-17T09:18:26.079Z,4.2
2017-01-17T09:19:06.598Z,4.34
2017-01-17T09:19:47.118Z,4.3
2017-01-17T09:20:27.631Z,4.41
2017-01-17T09:21:08.148Z,4.24
2017-01-17T09:21:48.660Z,4